createdAt,value
2022-12-03T00:02:00.024Z,6.40
2022-12-03T00:04:26.899Z,6.97
2022-12-03T00:06:53.568Z,6.47
2022-12-03T00:09:20.133Z,6.35
2022-12-03T00:11:46.715Z,5.13
2022-12-03T00:14:13.354Z,4.60
2022-12-03T00:16:39.989Z,6.85
2022-12-03T00:19:07.779Z,6.80
2022-12-03T00:21:34.591Z,6.90
2022-12-03T00:24:01.367Z,6.45
2022-12-03T00:26:28.052Z,9.13
2022-12-03T00:28:54.984Z,8.35
2022-12-03T00:31:23.544Z,8.00
2022-12-03T00:33:53.037Z,6.53
2022-12-03T00:36:20.032Z,6.15
2022-12-03T00:38:46.526Z,6.90
2022-12-03T00:41:13.261Z,6.33
2022-12-03T00:43:39.947Z,7.25
2022-12-03T00:46:06.662Z,7.30
2022-12-03T00:48:33.305Z,6.70
2022-12-03T00:50:59.889Z,7.30
2022-12-03T00:53:26.641Z,5.65
2022-12-03T00:55:53.147Z,6.85
2022-12-03T00:58:19.681Z,6.70
2022-12-03T01:00:46.191Z,7.40
2022-12-03T01:03:12.727Z,6.93
2022-12-03T01:05:39.262Z,6.70
2022-12-03T01:08:06.019Z,5.30
2022-12-03T01:10:32.598Z,8.23
2022-12-03T01:12:59.110Z,6.53
2022-12-03T01:15:25.672Z,9.30
2022-12-03T01:17:54.228Z,9.95
2022-12-03T01:20:21.034Z,7.75
2022-12-03T01:22:47.612Z,7.32
2022-12-03T01:25:14.534Z,10.90
2022-12-03T01:27:41.105Z,7.53
2022-12-03T01:30:08.278Z,6.88
2022-12-03T01:32:34.836Z,6.75
2022-12-03T01:35:01.364Z,4.60
2022-12-03T01:37:28.077Z,5.28
2022-12-03T01:39:54.733Z,6.93
2022-12-03T01:42:27.278Z,6.65
2022-12-03T01:44:57.060Z,6.95
2022-12-03T01:47:34.716Z,7.28
2022-12-03T01:50:04.399Z,7.13
2022-12-03T01:52:36.146Z,7.57
2022-12-03T01:55:06.189Z,7.53
2022-12-03T01:57:45.500Z,7.40
2022-12-03T02:00:21.295Z,7.07
2022-12-03T02:02:55.098Z,6.97
2022-12-03T02:05:25.010Z,7.03
2022-12-03T02:07:52.289Z,7.10
2022-12-03T02:13:03.289Z,7.22
2022-12-03T02:15:29.883Z,7.55
2022-12-03T02:17:57.756Z,7.75
2022-12-03T02:20:24.526Z,7.47
2022-12-03T02:23:09.416Z,7.22
2022-12-03T02:25:37.865Z,7.70
2022-12-03T02:28:06.050Z,8.57
2022-12-03T02:30:32.644Z,8.35
2022-12-03T02:32:59.746Z,8.38
2022-12-03T02:35:30.269Z,8.00
2022-12-03T02:38:03.321Z,8.38
2022-12-03T02:40:32.669Z,7.75
2022-12-03T02:43:02.517Z,7.95
2022-12-03T02:45:33.017Z,7.97
2022-12-03T02:48:02.440Z,7.82
2022-12-03T02:50:37.558Z,7.88
2022-12-03T02:53:07.273Z,7.55
2022-12-03T02:55:37.364Z,8.05
2022-12-03T02:58:05.788Z,7.55
2022-12-03T03:00:33.378Z,7.78
2022-12-03T03:03:01.192Z,7.75
2022-12-03T03:05:28.086Z,7.45
2022-12-03T03:07:56.697Z,7.45
2022-12-03T03:10:24.117Z,6.78
2022-12-03T03:15:20.162Z,6.95
2022-12-03T03:20:13.947Z,6.95
2022-12-03T03:25:12.338Z,6.88
2022-12-03T03:27:41.011Z,9.40
2022-12-03T03:30:09.926Z,9.60
2022-12-03T03:32:37.659Z,9.35
2022-12-03T03:35:06.443Z,10.70
2022-12-03T03:37:33.057Z,10.02
2022-12-03T03:39:59.655Z,9.77
2022-12-03T03:42:26.235Z,8.43
2022-12-03T03:44:53.135Z,7.70
2022-12-03T03:47:20.842Z,7.45
2022-12-03T03:49:49.543Z,8.20
2022-12-03T03:52:16.303Z,8.60
2022-12-03T03:54:43.009Z,9.27
2022-12-03T03:57:09.575Z,9.32
2022-12-03T03:59:36.397Z,9.98
2022-12-03T04:02:03.539Z,10.55
2022-12-03T04:04:35.783Z,9.68
2022-12-03T04:07:02.473Z,10.90
2022-12-03T04:09:29.049Z,12.18
2022-12-03T04:12:14.285Z,11.52
2022-12-03T04:14:40.798Z,11.32
2022-12-03T04:17:07.299Z,12.10
2022-12-03T04:19:33.832Z,14.93
2022-12-03T04:22:18.898Z,14.20
2022-12-03T04:24:45.424Z,12.60
2022-12-03T04:27:30.589Z,12.93
2022-12-03T04:29:57.145Z,10.80
2022-12-03T04:32:42.130Z,9.85
2022-12-03T04:35:28.576Z,9.52
2022-12-03T04:37:55.144Z,7.95
2022-12-03T04:40:40.173Z,8.75
2022-12-03T04:43:06.726Z,9.85
2022-12-03T04:45:33.343Z,9.35
2022-12-03T04:47:59.966Z,9.95
2022-12-03T04:50:26.675Z,12.95
2022-12-03T04:52:53.165Z,13.10
2022-12-03T04:55:19.659Z,12.23
2022-12-03T04:57:46.153Z,9.47
2022-12-03T05:00:13.477Z,10.93
2022-12-03T05:05:06.925Z,11.70
2022-12-03T05:07:33.554Z,12.27
2022-12-03T05:10:00.145Z,13.10
2022-12-03T05:12:26.731Z,9.63
2022-12-03T05:14:53.562Z,12.57
2022-12-03T05:17:20.337Z,12.77
2022-12-03T05:20:05.238Z,9.48
2022-12-03T05:22:31.805Z,12.00
2022-12-03T05:24:58.324Z,13.43
2022-12-03T05:27:24.884Z,12.23
2022-12-03T05:29:52.016Z,11.40
2022-12-03T05:32:18.952Z,12.77
2022-12-03T05:34:45.562Z,11.48
2022-12-03T05:37:12.082Z,13.02
2022-12-03T05:39:38.604Z,10.87
2022-12-03T05:42:23.726Z,15.17
2022-12-03T05:44:50.230Z,12.75
2022-12-03T05:47:16.802Z,9.60
2022-12-03T05:49:43.347Z,14.63
2022-12-03T05:52:09.946Z,14.25
2022-12-03T05:54:36.534Z,11.07
2022-12-03T05:57:03.141Z,10.32
2022-12-03T05:59:29.674Z,10.55
2022-12-03T06:01:56.313Z,10.80
2022-12-03T06:04:22.858Z,11.88
2022-12-03T06:06:49.358Z,12.67
2022-12-03T06:09:15.863Z,12.60
2022-12-03T06:11:42.385Z,14.80
2022-12-03T06:14:09.129Z,12.47
2022-12-03T06:16:35.666Z,24.35
2022-12-03T06:19:02.207Z,30.77
2022-12-03T06:21:28.746Z,25.80
2022-12-03T06:23:55.305Z,27.13
2022-12-03T06:26:21.831Z,27.40
2022-12-03T06:28:49.374Z,24.93
2022-12-03T06:31:16.036Z,24.40
2022-12-03T06:33:42.633Z,25.50
2022-12-03T06:36:09.246Z,28.87
2022-12-03T06:38:35.781Z,21.77
2022-12-03T06:41:02.318Z,23.08
2022-12-03T06:43:30.897Z,27.20
2022-12-03T06:45:57.432Z,22.15
2022-12-03T06:48:23.975Z,19.13
2022-12-03T06:50:50.517Z,21.40
2022-12-03T06:53:17.102Z,21.13
2022-12-03T06:55:43.695Z,26.00
2022-12-03T06:58:10.236Z,24.05
2022-12-03T07:00:36.788Z,20.87
2022-12-03T07:03:03.415Z,18.33
2022-12-03T07:05:30.084Z,18.25
2022-12-03T07:07:57.167Z,17.43
2022-12-03T07:10:23.787Z,19.63
2022-12-03T07:12:50.364Z,20.10
2022-12-03T07:15:17.150Z,21.50
2022-12-03T07:17:43.767Z,16.30
2022-12-03T07:20:10.783Z,21.95
2022-12-03T07:22:37.313Z,19.60
2022-12-03T07:25:04.455Z,21.37
2022-12-03T07:27:30.990Z,22.83
2022-12-03T07:29:57.530Z,23.17
2022-12-03T07:32:24.067Z,22.10
2022-12-03T07:34:50.885Z,17.23
2022-12-03T07:37:22.703Z,25.45
2022-12-03T07:39:49.778Z,28.85
2022-12-03T07:42:16.314Z,27.50
2022-12-03T07:44:42.855Z,29.70
2022-12-03T07:47:09.406Z,31.02
2022-12-03T07:49:35.997Z,29.65
2022-12-03T07:52:02.525Z,28.13
2022-12-03T07:54:29.071Z,24.75
2022-12-03T07:57:00.945Z,27.73
2022-12-03T07:59:28.559Z,27.42
2022-12-03T08:01:55.347Z,27.58
2022-12-03T08:04:22.113Z,30.58
2022-12-03T08:06:49.142Z,38.00
2022-12-03T08:09:16.301Z,30.10
2022-12-03T08:11:48.803Z,37.72
2022-12-03T08:14:18.082Z,30.73
2022-12-03T08:16:46.884Z,19.63
2022-12-03T08:19:17.816Z,16.45
2022-12-03T08:21:44.825Z,14.68
2022-12-03T08:24:17.339Z,15.23
2022-12-03T08:26:45.448Z,18.40
2022-12-03T08:29:15.315Z,16.52
2022-12-03T08:31:42.692Z,15.63
2022-12-03T08:36:47.718Z,14.70
2022-12-03T08:39:28.247Z,13.68
2022-12-03T08:42:17.608Z,15.45
2022-12-03T08:44:44.610Z,15.20
2022-12-03T08:47:19.472Z,16.75
2022-12-03T08:49:55.123Z,34.20
2022-12-03T08:52:26.926Z,15.63
2022-12-03T08:55:29.072Z,13.98
2022-12-03T08:57:55.634Z,13.55
2022-12-03T09:00:24.380Z,14.45
2022-12-03T09:02:53.712Z,15.07
2022-12-03T09:05:28.132Z,16.73
2022-12-03T09:07:54.707Z,16.48
2022-12-03T09:10:21.329Z,16.00
2022-12-03T09:12:47.927Z,16.10
2022-12-03T09:15:14.532Z,11.07
2022-12-03T09:17:41.072Z,13.57
2022-12-03T09:20:08.304Z,15.05
2022-12-03T09:22:34.823Z,15.05
2022-12-03T09:25:01.489Z,13.03
2022-12-03T09:27:28.045Z,28.55
2022-12-03T09:29:54.567Z,29.50
2022-12-03T09:32:21.216Z,16.33
2022-12-03T09:34:47.829Z,16.13
2022-12-03T09:37:14.440Z,18.27
2022-12-03T09:39:40.966Z,16.98
2022-12-03T09:42:08.093Z,16.80
2022-12-03T09:44:35.507Z,13.75
2022-12-03T09:49:32.591Z,25.67
2022-12-03T09:52:02.003Z,16.25
2022-12-03T09:54:30.732Z,15.75
2022-12-03T09:57:00.345Z,15.95
2022-12-03T09:59:33.406Z,13.85
2022-12-03T10:02:00.687Z,13.43
2022-12-03T10:04:28.574Z,14.73
2022-12-03T10:06:57.837Z,16.35
2022-12-03T10:09:26.702Z,15.07
2022-12-03T10:11:54.560Z,14.65
2022-12-03T10:14:21.267Z,14.73
2022-12-03T10:16:48.477Z,15.63
2022-12-03T10:19:27.669Z,21.55
2022-12-03T10:21:55.675Z,20.48
2022-12-03T10:24:33.758Z,17.88
2022-12-03T10:27:02.378Z,18.05
2022-12-03T10:29:34.280Z,17.52
2022-12-03T10:32:06.835Z,20.55
2022-12-03T10:34:41.220Z,18.67
2022-12-03T10:37:19.487Z,16.35
2022-12-03T10:40:11.882Z,14.68
2022-12-03T10:42:40.865Z,15.25
2022-12-03T10:45:22.703Z,35.40
2022-12-03T10:48:21.999Z,18.08
2022-12-03T10:51:04.674Z,31.58
2022-12-03T10:53:34.280Z,16.15
2022-12-03T10:56:03.228Z,14.05
2022-12-03T10:58:34.035Z,15.00
2022-12-03T11:01:05.982Z,15.02
2022-12-03T11:03:36.276Z,15.15
2022-12-03T11:06:03.453Z,15.10
2022-12-03T11:08:34.583Z,16.75
2022-12-03T11:11:04.868Z,27.00
2022-12-03T11:13:34.460Z,17.58
2022-12-03T11:16:07.445Z,17.27
2022-12-03T11:18:37.026Z,22.90
2022-12-03T11:21:06.489Z,15.98
2022-12-03T11:23:45.024Z,15.68
2022-12-03T11:26:19.280Z,14.90
2022-12-03T11:28:46.417Z,13.85
2022-12-03T11:31:35.787Z,14.27
2022-12-03T11:34:20.826Z,14.02
2022-12-03T11:37:11.941Z,14.68
2022-12-03T11:39:50.922Z,14.98
2022-12-03T11:42:26.388Z,14.93
2022-12-03T11:45:13.853Z,14.52
2022-12-03T11:47:47.019Z,15.77
2022-12-03T11:50:40.160Z,15.45
2022-12-03T11:53:25.438Z,14.63
2022-12-03T11:56:09.006Z,15.52
2022-12-03T11:58:38.390Z,16.77
2022-12-03T12:01:07.204Z,16.05
2022-12-03T12:03:37.084Z,14.63
2022-12-03T12:06:09.166Z,15.23
2022-12-03T12:08:38.342Z,15.80
2022-12-03T12:11:17.259Z,15.27
2022-12-03T12:14:26.357Z,17.05
2022-12-03T12:16:55.260Z,15.32
2022-12-03T12:19:43.207Z,15.98
2022-12-03T12:22:25.298Z,15.93
2022-12-03T12:24:56.728Z,16.27
2022-12-03T12:27:39.373Z,15.50
2022-12-03T12:30:14.874Z,15.45
2022-12-03T12:32:46.895Z,16.35
2022-12-03T12:35:28.317Z,16.20
2022-12-03T12:38:00.817Z,20.77
2022-12-03T12:40:32.920Z,16.85
2022-12-03T12:43:22.073Z,16.33
2022-12-03T12:45:53.165Z,17.17
2022-12-03T12:48:31.167Z,20.20
2022-12-03T12:51:09.531Z,23.85
2022-12-03T12:53:38.912Z,25.83
2022-12-03T12:56:32.360Z,23.80
2022-12-03T12:59:09.334Z,18.30
2022-12-03T13:01:36.514Z,20.10
2022-12-03T13:04:14.162Z,18.83
2022-12-03T13:06:41.167Z,18.42
2022-12-03T13:09:19.131Z,19.27
2022-12-03T13:11:58.514Z,17.65
2022-12-03T13:14:30.292Z,19.48
2022-12-03T13:16:59.034Z,19.55
2022-12-03T13:19:27.865Z,21.42
2022-12-03T13:21:56.356Z,21.42
2022-12-03T13:24:37.947Z,24.48
2022-12-03T13:27:13.766Z,27.60
2022-12-03T13:29:40.595Z,21.65
2022-12-03T13:32:14.253Z,16.83
2022-12-03T13:34:41.114Z,23.08
2022-12-03T13:37:19.553Z,24.05
2022-12-03T13:39:49.808Z,24.35
2022-12-03T13:42:39.167Z,25.58
2022-12-03T13:45:14.788Z,28.50
2022-12-03T13:47:43.349Z,28.20
2022-12-03T13:50:22.125Z,26.13
2022-12-03T13:52:48.759Z,26.13
2022-12-03T13:55:28.032Z,26.27
2022-12-03T13:57:55.499Z,26.20
2022-12-03T14:02:48.683Z,26.13
2022-12-03T14:05:15.502Z,20.08
2022-12-03T14:07:42.082Z,27.10
2022-12-03T14:10:11.386Z,28.53
2022-12-03T14:12:38.290Z,27.60
2022-12-03T14:15:06.409Z,27.30
2022-12-03T14:17:33.010Z,26.73
2022-12-03T14:20:03.807Z,28.15
2022-12-03T14:22:30.737Z,30.70
2022-12-03T14:24:57.580Z,32.08
2022-12-03T14:27:24.956Z,33.47
2022-12-03T14:32:19.240Z,28.75
2022-12-03T14:34:45.818Z,28.98
2022-12-03T14:37:12.333Z,29.77
2022-12-03T14:39:38.985Z,29.60
2022-12-03T14:42:14.926Z,30.45
2022-12-03T14:44:46.151Z,29.95
2022-12-03T14:47:13.804Z,29.05
2022-12-03T14:49:41.118Z,28.08
2022-12-03T14:52:11.911Z,28.80
2022-12-03T14:54:39.255Z,29.75
2022-12-03T14:57:05.909Z,30.85
2022-12-03T14:59:32.453Z,28.80
2022-12-03T15:01:59.075Z,26.73
2022-12-03T15:04:25.970Z,36.90
2022-12-03T15:06:52.555Z,33.42
2022-12-03T15:09:19.193Z,35.00
2022-12-03T15:11:46.675Z,39.67
2022-12-03T15:14:13.688Z,41.58
2022-12-03T15:16:40.449Z,43.17
2022-12-03T15:19:07.233Z,31.02
2022-12-03T15:21:35.024Z,44.47
2022-12-03T15:24:02.552Z,45.85
2022-12-03T15:28:55.945Z,40.20
2022-12-03T15:31:22.666Z,37.67
2022-12-03T15:33:49.293Z,34.05
2022-12-03T15:36:15.895Z,35.90
2022-12-03T15:38:42.705Z,37.03
2022-12-03T15:41:21.605Z,39.38
2022-12-03T15:43:49.069Z,39.03
